createdAt,value
2022-07-27T00:01:50.680Z,20.70
2022-07-27T00:04:21.923Z,20.70
2022-07-27T00:06:49.174Z,20.70
2022-07-27T00:09:16.326Z,20.70
2022-07-27T00:11:43.162Z,20.70
2022-07-27T00:14:09.926Z,20.70
2022-07-27T00:16:36.853Z,20.70
2022-07-27T00:19:04.281Z,20.70
2022-07-27T00:21:36.063Z,20.80
2022-07-27T00:24:11.753Z,20.80
2022-07-27T00:26:38.481Z,20.80
2022-07-27T00:29:05.196Z,20.80
2022-07-27T00:31:32.064Z,20.80
2022-07-27T00:33:58.966Z,20.70
2022-07-27T00:36:25.709Z,20.70
2022-07-27T00:38:52.677Z,20.80
2022-07-27T00:41:19.432Z,20.70
2022-07-27T00:43:55.251Z,20.70
2022-07-27T00:46:22.710Z,20.70
2022-07-27T00:48:50.026Z,20.70
2022-07-27T00:51:19.062Z,20.70
2022-07-27T00:53:46.925Z,20.70
2022-07-27T00:56:14.119Z,20.70
2022-07-27T00:58:41.897Z,20.60
2022-07-27T01:01:08.660Z,20.60
2022-07-27T01:03:35.404Z,20.50
2022-07-27T01:06:02.537Z,20.50
2022-07-27T01:08:31.514Z,20.40
2022-07-27T01:10:59.362Z,20.40
2022-07-27T01:13:26.929Z,20.40
2022-07-27T01:15:55.215Z,20.30
2022-07-27T01:18:31.048Z,20.30
2022-07-27T01:20:58.629Z,20.30
2022-07-27T01:23:26.722Z,20.30
2022-07-27T01:25:54.412Z,20.30
2022-07-27T01:28:21.488Z,20.30
2022-07-27T01:30:48.382Z,20.30
2022-07-27T01:33:15.284Z,20.20
2022-07-27T01:35:42.445Z,20.20
2022-07-27T01:38:11.376Z,20.20
2022-07-27T01:40:39.677Z,20.20
2022-07-27T01:43:06.745Z,20.10
2022-07-27T01:45:33.563Z,20.10
2022-07-27T01:48:00.609Z,20.10
2022-07-27T01:50:27.607Z,20.00
2022-07-27T01:52:54.380Z,20.00
2022-07-27T01:55:21.239Z,20.00
2022-07-27T01:57:48.028Z,20.00
2022-07-27T02:00:15.809Z,20.00
2022-07-27T02:02:42.695Z,20.00
2022-07-27T02:05:12.167Z,19.90
2022-07-27T02:07:41.018Z,19.80
2022-07-27T02:10:08.910Z,19.70
2022-07-27T02:39:39.635Z,19.50
2022-07-27T02:42:06.495Z,19.60
2022-07-27T02:47:02.061Z,19.30
2022-07-27T02:49:28.868Z,19.20
2022-07-27T02:51:55.908Z,19.10
2022-07-27T02:54:24.567Z,19.10
2022-07-27T02:56:52.685Z,19.10
2022-07-27T02:59:20.044Z,19.00
2022-07-27T03:01:47.164Z,19.00
2022-07-27T03:04:14.350Z,18.90
2022-07-27T03:06:41.988Z,18.90
2022-07-27T03:09:09.532Z,18.90
2022-07-27T03:11:37.010Z,18.90
2022-07-27T03:14:04.518Z,18.90
2022-07-27T03:16:31.441Z,18.80
2022-07-27T03:18:58.181Z,18.80
2022-07-27T03:21:25.213Z,18.70
2022-07-27T03:23:51.970Z,18.70
2022-07-27T03:26:19.257Z,18.60
2022-07-27T03:28:46.106Z,18.60
2022-07-27T03:31:12.989Z,18.60
2022-07-27T03:33:39.811Z,18.70
2022-07-27T03:36:07.306Z,18.60
2022-07-27T03:38:34.185Z,18.60
2022-07-27T03:41:00.964Z,18.60
2022-07-27T03:43:27.837Z,18.60
2022-07-27T03:45:54.649Z,18.50
2022-07-27T03:48:21.444Z,18.50
2022-07-27T03:50:48.161Z,18.50
2022-07-27T03:53:14.938Z,18.60
2022-07-27T03:55:41.689Z,18.50
2022-07-27T03:58:08.533Z,18.50
2022-07-27T04:00:35.312Z,18.60
2022-07-27T04:03:02.075Z,18.60
2022-07-27T04:05:29.628Z,18.60
2022-07-27T04:07:57.000Z,18.60
2022-07-27T04:10:25.562Z,18.60
2022-07-27T04:12:57.596Z,18.50
2022-07-27T04:15:25.549Z,18.50
2022-07-27T04:17:56.388Z,18.60
2022-07-27T04:20:24.535Z,18.60
2022-07-27T04:22:51.386Z,18.70
2022-07-27T04:25:18.132Z,18.70
2022-07-27T04:27:44.849Z,18.70
2022-07-27T04:30:12.398Z,18.80
2022-07-27T04:32:39.307Z,18.80
2022-07-27T04:35:07.791Z,18.90
2022-07-27T04:37:35.342Z,18.90
2022-07-27T04:40:02.204Z,18.90
2022-07-27T04:42:29.912Z,19.00
2022-07-27T04:44:57.043Z,19.10
2022-07-27T04:47:23.808Z,19.10
2022-07-27T04:49:50.600Z,19.20
2022-07-27T04:52:17.634Z,19.20
2022-07-27T04:54:45.708Z,19.30
2022-07-27T04:57:12.480Z,19.40
2022-07-27T04:59:39.266Z,19.50
2022-07-27T05:02:06.006Z,19.50
2022-07-27T05:04:32.767Z,19.60
2022-07-27T05:06:59.629Z,19.70
2022-07-27T05:09:26.340Z,19.80
2022-07-27T05:11:53.254Z,19.90
2022-07-27T05:14:21.521Z,20.00
2022-07-27T05:16:48.987Z,20.00
2022-07-27T05:19:16.123Z,20.10
2022-07-27T05:21:43.362Z,20.20
2022-07-27T05:24:10.219Z,20.20
2022-07-27T05:26:37.724Z,20.20
2022-07-27T05:29:05.170Z,20.20
2022-07-27T05:31:31.966Z,20.30
2022-07-27T05:33:58.919Z,20.40
2022-07-27T05:36:26.335Z,20.50
2022-07-27T05:38:53.112Z,20.60
2022-07-27T05:41:27.170Z,20.60
2022-07-27T05:43:55.135Z,20.70
2022-07-27T05:46:23.026Z,20.80
2022-07-27T05:48:50.619Z,20.80
2022-07-27T05:51:17.630Z,20.90
2022-07-27T05:53:44.366Z,21.00
2022-07-27T05:56:11.491Z,21.00
2022-07-27T05:58:38.304Z,21.10
2022-07-27T06:01:05.331Z,21.10
2022-07-27T06:03:32.462Z,21.20
2022-07-27T06:06:17.835Z,21.30
2022-07-27T06:08:44.950Z,21.30
2022-07-27T06:11:11.904Z,21.40
2022-07-27T06:13:42.418Z,21.40
2022-07-27T06:16:10.261Z,21.50
2022-07-27T06:18:37.508Z,21.60
2022-07-27T06:21:07.554Z,21.60
2022-07-27T06:23:34.348Z,21.70
2022-07-27T06:26:01.104Z,21.70
2022-07-27T06:28:27.871Z,21.80
2022-07-27T06:30:54.632Z,21.90
2022-07-27T06:33:28.874Z,21.90
2022-07-27T06:35:56.659Z,21.90
2022-07-27T06:38:24.604Z,22.10
2022-07-27T06:40:54.215Z,22.30
2022-07-27T06:43:23.002Z,22.40
2022-07-27T06:45:50.498Z,22.50
2022-07-27T06:48:18.218Z,22.60
2022-07-27T06:50:45.067Z,22.70
2022-07-27T06:53:11.812Z,22.80
2022-07-27T06:55:39.022Z,22.90
2022-07-27T06:58:05.768Z,23.10
2022-07-27T07:00:33.063Z,23.20
2022-07-27T07:05:29.066Z,23.40
2022-07-27T07:07:56.324Z,25.50
2022-07-27T07:10:25.103Z,27.40
2022-07-27T07:15:25.434Z,28.80
2022-07-27T07:20:19.887Z,31.40
2022-07-27T07:22:46.706Z,31.70
2022-07-27T07:25:13.738Z,32.20
2022-07-27T07:27:40.759Z,32.60
2022-07-27T07:30:08.071Z,33.30
2022-07-27T07:32:34.835Z,33.80
2022-07-27T07:35:03.723Z,34.20
2022-07-27T07:37:33.599Z,35.00
2022-07-27T07:40:25.185Z,35.10
2022-07-27T07:42:54.582Z,35.30
2022-07-27T07:45:25.258Z,35.20
2022-07-27T07:47:52.530Z,35.00
2022-07-27T07:50:20.176Z,34.60
2022-07-27T07:52:53.889Z,34.90
2022-07-27T07:55:22.933Z,35.10
2022-07-27T07:57:50.648Z,35.50
2022-07-27T08:00:18.454Z,35.80
2022-07-27T08:02:51.682Z,35.60
2022-07-27T08:05:19.397Z,35.20
2022-07-27T08:07:46.660Z,34.50
2022-07-27T08:10:15.121Z,33.40
2022-07-27T08:12:44.810Z,32.60
2022-07-27T08:15:13.042Z,32.30
2022-07-27T08:17:40.123Z,32.30
2022-07-27T08:20:07.646Z,32.50
2022-07-27T08:22:34.661Z,33.00
2022-07-27T08:25:02.220Z,33.80
2022-07-27T08:27:29.014Z,34.50
2022-07-27T08:29:55.789Z,35.30
2022-07-27T08:32:22.675Z,35.60
2022-07-27T08:34:49.511Z,36.00
2022-07-27T08:37:16.225Z,36.10
2022-07-27T08:42:31.795Z,36.90
2022-07-27T08:59:43.415Z,38.30
2022-07-27T09:02:14.062Z,37.90
2022-07-27T09:04:41.495Z,36.40
2022-07-27T09:07:08.726Z,36.00
2022-07-27T09:09:46.513Z,35.70
2022-07-27T09:12:13.646Z,35.20
2022-07-27T09:14:41.779Z,34.60
2022-07-27T09:56:27.553Z,33.30
2022-07-27T09:58:59.283Z,29.30
2022-07-27T10:08:54.753Z,28.10
2022-07-27T10:11:23.127Z,28.00
2022-07-27T10:13:51.379Z,27.90
2022-07-27T10:16:29.350Z,27.80
2022-07-27T10:19:20.818Z,27.60
2022-07-27T10:21:48.715Z,27.50
2022-07-27T10:24:28.821Z,27.50
2022-07-27T10:26:55.841Z,27.40
2022-07-27T10:29:24.319Z,27.20
2022-07-27T10:31:54.094Z,27.00
2022-07-27T10:34:40.628Z,26.80
2022-07-27T10:37:23.479Z,26.70
2022-07-27T10:40:13.577Z,26.50
2022-07-27T10:42:40.828Z,26.30
2022-07-27T10:45:18.184Z,26.30
2022-07-27T11:00:54.223Z,26.20
2022-07-27T11:03:34.709Z,26.10
2022-07-27T11:36:58.441Z,25.30
2022-07-27T11:39:59.304Z,24.40
2022-07-27T11:42:21.511Z,24.40
2022-07-27T11:44:51.087Z,24.30
2022-07-27T11:47:19.831Z,24.20
2022-07-27T11:49:46.641Z,24.20
2022-07-27T11:52:17.360Z,24.20
2022-07-27T11:54:50.610Z,24.20
2022-07-27T11:57:18.690Z,24.30
2022-07-27T11:59:46.179Z,24.40
2022-07-27T12:02:17.682Z,24.40
2022-07-27T12:04:46.702Z,24.40
2022-07-27T12:07:19.941Z,24.30
2022-07-27T12:09:55.124Z,24.30
2022-07-27T12:12:32.543Z,24.20
2022-07-27T12:15:11.605Z,24.10
2022-07-27T12:17:44.159Z,24.00
2022-07-27T12:20:16.117Z,23.90
2022-07-27T12:22:45.452Z,23.90
2022-07-27T12:25:18.006Z,23.80
2022-07-27T12:28:00.106Z,23.70
2022-07-27T12:30:35.634Z,23.60
2022-07-27T12:33:04.500Z,23.50
2022-07-27T12:40:43.026Z,23.40
2022-07-27T12:43:09.894Z,23.40
2022-07-27T12:45:38.595Z,23.40
2022-07-27T12:48:27.258Z,23.30
2022-07-27T12:51:02.443Z,23.40
2022-07-27T12:53:30.259Z,23.40
2022-07-27T12:55:59.338Z,23.50
2022-07-27T12:58:26.409Z,23.50
2022-07-27T13:00:55.082Z,23.50
2022-07-27T13:03:22.427Z,23.40
2022-07-27T13:05:49.269Z,23.30
2022-07-27T13:08:17.028Z,23.40
2022-07-27T13:10:44.638Z,23.40
2022-07-27T13:13:12.216Z,23.40
2022-07-27T13:15:39.008Z,23.40
2022-07-27T13:18:06.237Z,23.40
2022-07-27T13:20:35.206Z,23.30
2022-07-27T13:23:02.017Z,23.20
2022-07-27T13:25:28.741Z,23.10
2022-07-27T13:27:55.528Z,23.00
2022-07-27T13:30:22.351Z,22.90
2022-07-27T13:32:49.204Z,22.90
2022-07-27T13:35:16.984Z,22.90
2022-07-27T17:36:15.981Z,22.90
2022-07-27T17:38:44.036Z,23.00
2022-07-27T17:41:11.534Z,22.90
2022-07-27T17:43:41.028Z,22.90
2022-07-27T17:46:09.281Z,22.90
2022-07-27T17:48:37.405Z,22.80
2022-07-27T17:51:06.326Z,22.80
2022-07-27T17:53:33.966Z,22.70
2022-07-27T17:56:01.958Z,22.80
2022-07-27T17:58:30.483Z,22.70
2022-07-27T18:00:57.570Z,22.70
2022-07-27T18:03:24.287Z,22.60
2022-07-27T18:05:51.004Z,22.60
2022-07-27T18:08:17.844Z,22.60
2022-07-27T18:10:44.600Z,22.50
2022-07-27T18:13:11.349Z,22.50
2022-07-27T18:15:47.015Z,22.50
2022-07-27T18:18:23.673Z,22.50
2022-07-27T18:20:54.066Z,22.50
2022-07-27T18:23:28.099Z,22.40
2022-07-27T18:25:54.938Z,22.40
2022-07-27T18:28:21.727Z,22.40
2022-07-27T18:30:50.012Z,22.30
2022-07-27T18:33:17.304Z,22.30
2022-07-27T18:35:45.437Z,22.20
2022-07-27T18:38:13.297Z,22.20
2022-07-27T18:40:44.689Z,22.20
2022-07-27T18:43:11.648Z,22.20
2022-07-27T18:45:39.654Z,22.10
2022-07-27T18:48:11.042Z,22.10
2022-07-27T18:50:40.077Z,22.10
2022-07-27T18:53:08.191Z,22.00
2022-07-27T18:55:35.039Z,22.00
2022-07-27T18:58:01.872Z,22.00
2022-07-27T19:00:29.730Z,22.00
2022-07-27T19:02:58.049Z,22.00
2022-07-27T19:05:32.676Z,21.90
2022-07-27T19:08:12.974Z,21.80
2022-07-27T19:10:41.520Z,21.80
2022-07-27T19:13:09.026Z,21.70
2022-07-27T19:15:36.215Z,21.70
2022-07-27T19:18:04.081Z,21.70
2022-07-27T19:20:31.088Z,21.70
2022-07-27T19:22:57.846Z,21.70
2022-07-27T19:25:24.607Z,21.80
2022-07-27T19:27:51.446Z,21.80
2022-07-27T19:30:18.283Z,21.80
2022-07-27T19:32:45.269Z,21.80
2022-07-27T19:35:12.384Z,21.80
2022-07-27T19:37:39.480Z,21.70
2022-07-27T19:40:33.358Z,21.70
2022-07-27T19:42:54.288Z,21.70
2022-07-27T19:45:21.038Z,21.70
2022-07-27T19:47:47.826Z,21.60
2022-07-27T19:50:14.629Z,21.50
2022-07-27T19:52:41.353Z,21.50
2022-07-27T19:55:08.544Z,21.50
2022-07-27T19:57:35.702Z,21.40
2022-07-27T20:00:04.516Z,21.40
2022-07-27T20:02:31.654Z,21.40
2022-07-27T20:04:58.481Z,21.30
2022-07-27T20:07:25.244Z,21.30
2022-07-27T20:09:52.223Z,21.20
2022-07-27T20:12:19.094Z,21.20
2022-07-27T20:36:55.386Z,20.80
2022-07-27T20:39:25.035Z,20.80
2022-07-27T20:41:52.543Z,20.70
2022-07-27T20:44:20.818Z,20.60
2022-07-27T20:49:16.385Z,21.20
2022-07-27T20:51:43.757Z,20.60
2022-07-27T20:54:10.893Z,20.50
2022-07-27T20:56:38.070Z,20.60
2022-07-27T20:59:07.761Z,20.50
2022-07-27T21:01:44.467Z,20.50
2022-07-27T21:04:11.446Z,20.40
2022-07-27T21:06:38.559Z,20.40
2022-07-27T21:09:07.435Z,20.40
2022-07-27T21:11:34.208Z,20.40
2022-07-27T21:14:01.157Z,20.30
2022-07-27T21:16:27.972Z,20.30
2022-07-27T21:18:55.214Z,20.20
2022-07-27T21:21:27.481Z,20.20
2022-07-27T21:24:14.180Z,20.10
2022-07-27T21:29:11.491Z,20.10
2022-07-27T21:31:39.160Z,20.10
2022-07-27T21:34:09.627Z,20.10
2022-07-27T21:36:36.381Z,20.10
2022-07-27T21:39:03.668Z,20.00
2022-07-27T21:41:30.564Z,20.00
2022-07-27T21:43:57.452Z,19.90
2022-07-27T21:46:24.940Z,19.90
2022-07-27T21:51:19.553Z,19.80
2022-07-27T21:53:46.649Z,19.80
2022-07-27T21:56:14.982Z,19.70
2022-07-27T21:58:45.702Z,19.70
2022-07-27T22:01:13.408Z,19.80
2022-07-27T22:03:41.761Z,19.80
2022-07-27T22:06:10.167Z,19.80
2022-07-27T22:08:37.172Z,19.90
2022-07-27T22:11:04.580Z,19.80
2022-07-27T22:13:32.060Z,19.80
2022-07-27T22:15:58.945Z,19.80
2022-07-27T22:18:25.712Z,19.80
2022-07-27T22:20:52.581Z,19.80
2022-07-27T22:23:19.370Z,19.80
2022-07-27T22:25:46.378Z,19.80
2022-07-27T22:28:13.107Z,19.80
2022-07-27T22:30:40.306Z,19.70
2022-07-27T22:33:08.020Z,19.80
2022-07-27T22:35:34.938Z,19.70
2022-07-27T22:38:01.975Z,19.70
2022-07-27T22:40:28.943Z,19.70
2022-07-27T22:42:55.799Z,19.60
2022-07-27T22:45:23.713Z,19.60
2022-07-27T22:47:50.502Z,20.50
2022-07-27T22:50:20.270Z,19.60
2022-07-27T22:52:47.842Z,19.60
2022-07-27T22:55:15.356Z,19.50
2022-07-27T22:57:42.367Z,19.60
2022-07-27T23:00:09.717Z,19.50
2022-07-27T23:02:36.488Z,19.60
2022-07-27T23:05:03.575Z,19.60
2022-07-27T23:07:30.368Z,19.60
2022-07-27T23:09:57.383Z,19.50
2022-07-27T23:12:24.702Z,19.50
2022-07-27T23:14:51.477Z,19.50
2022-07-27T23:17:18.467Z,19.50
2022-07-27T23:19:45.226Z,19.50
2022-07-27T23:22:12.021Z,19.50
2022-07-27T23:24:43.929Z,19.50
2022-07-27T23:27:10.721Z,19.50
2022-07-27T23:29:37.722Z,19.50
2022-07-27T23:32:06.066Z,19.40
2022-07-27T23:34:32.889Z,19.40
2022-07-27T23:36:59.841Z,19.40
2022-07-27T23:39:27.571Z,19.40
2022-07-27T23:41:54.400Z,19.40
2022-07-27T23:44:21.185Z,19.40
2022-07-27T23:46:48.014Z,19.40
2022-07-27T23:49:15.103Z,19.40
2022-07-27T23:51:42.147Z,19.40
2022-07-27T23:54:09.245Z,19.40
2022-07-27T23:56:36.108Z,19.30
2022-07-27T23:59:03.582Z,19.30
